Telegraph Creek, Canada
Current Conditions -  °F | °C
As of 6:00 AM on Thursday 23 Oct 2014 (Local Time) from CYDL Reporting Station
Overcast Overcast  
Wind Chill: 28°   Ceiling: 1100
Heat Index: 28°   Visibility: 9mi
Dew Point: 28°   Wind: 3mph
Humidity: 100%   Direction: 60°ENE
Pressure: 29.49"   Gusts: NA
Location:  57.9°N, 131.15°W
Report Text: CYDL 231300Z AUTO 06003KT 9SM OVC011 M02/M02 A2949 RMK SLP008
Loading
Personal Weather Stations






























Interactive Weather Map New forecast layout! Learn more

10-Day Weather Forecast

Advertisements
Track Severe Weather on mobile